Kansas City, Missouri
Current Conditions -  °F | °C
As of 10:54 PM on Saturday 20 Dec 2014 (Local Time) from KMKC Reporting Station
Clear Clear  
Wind Chill: 32°   Ceiling: Unl
Heat Index: 39°   Visibility: 9mi
Dew Point: 33°   Wind: 10mph
Humidity: 79%   Direction: 200°SSW
Pressure: 30.13"   Gusts: NA
Location:  39.1°N, 94.58°W
Report Text: KMKC 210454Z 20009KT 9SM CLR 04/01 A3013 RMK AO2 SLP209 T00390006
Loading
Personal Weather Stations






























Interactive Weather Map New forecast layout! Learn more

10-Day Weather Forecast

Advertisements
Track Severe Weather on mobile